Terminal Aerodrome Forecast
Issued by NWS Wilmington, NC

Home | Current Version | Previous Version | Text Only | Print | Product List | Glossary On
Versions: 1 2 3 4 5 6 7 8 9 10 11 12 13 14 15 16 17 18 19 20 21 22 23
879
FTUS42 KILM 031134
TAFILM
TAF
KILM 031134Z 0312/0412 28010KT 6SM -SHRA SCT015 SCT040 BKN100
      TEMPO 0312/0315 VRB10G15KT 3SM TSRA SCT010 BKN020CB
     FM031500 22010G18KT P6SM VCSH SCT025 SCT050 BKN150
      TEMPO 0316/0320 BKN025
     FM032000 22011KT P6SM VCTS SCT025 BKN040CB
     FM040100 22006KT P6SM VCSH SCT050 BKN100=

USA.gov is the U.S. government's official web portal to all federal, state and local government web resources and services.